Time;durP1;ratioP1;P1;durP2;ratioP2;P2;SDS_P1;SDS_P2;PMS_P1;PMS_P2;Temp;Humidity;BMP_temperature;BMP_pressure;BME280_temperature;BME280_humidity;BME280_pressure;Samples;Min_cycle;Max_cycle;Signal;HPM_P1;HPM_P2
2023/11/06 00:00:31;;;;;;;1.50;1.10;;;10.80;98.20;;;;;;4988678;28;20480;-84
2023/11/06 00:02:58;;;;;;;1.87;1.67;;;10.80;98.20;;;;;;4993894;28;20468;-85
2023/11/06 00:05:25;;;;;;;1.60;1.10;;;10.80;98.20;;;;;;4989312;28;20555;-85
2023/11/06 00:07:52;;;;;;;1.53;1.00;;;10.80;98.20;;;;;;4994767;28;20518;-85
2023/11/06 00:10:19;;;;;;;1.53;1.10;;;10.80;98.20;;;;;;4984714;28;20560;-85
2023/11/06 00:12:46;;;;;;;1.60;1.10;;;10.90;98.20;;;;;;4988170;28;20547;-85
2023/11/06 00:15:15;;;;;;;1.60;1.10;;;10.90;98.20;;;;;;4978529;28;20458;-85
2023/11/06 00:17:43;;;;;;;1.60;1.13;;;10.90;98.20;;;;;;4990293;28;20480;-85
2023/11/06 00:20:11;;;;;;;1.50;1.10;;;10.90;98.20;;;;;;4987991;28;20483;-85
2023/11/06 00:22:38;;;;;;;1.60;1.20;;;11.00;98.20;;;;;;4994117;28;20936;-84
2023/11/06 00:25:05;;;;;;;1.60;1.30;;;11.00;98.20;;;;;;4985465;28;20520;-84
2023/11/06 00:27:32;;;;;;;1.60;1.10;;;11.00;98.20;;;;;;4991171;28;20549;-85
2023/11/06 00:29:59;;;;;;;1.60;1.20;;;11.10;98.20;;;;;;4978810;28;20596;-84
2023/11/06 00:32:26;;;;;;;1.60;1.20;;;11.10;98.20;;;;;;4990786;28;20471;-83
2023/11/06 00:34:54;;;;;;;1.60;1.10;;;11.10;98.20;;;;;;4996567;28;20457;-83
2023/11/06 00:37:21;;;;;;;1.57;1.10;;;11.10;98.20;;;;;;4987543;28;20991;-84
2023/11/06 00:39:47;;;;;;;1.60;1.10;;;11.10;98.20;;;;;;4988901;28;21204;-85
2023/11/06 00:42:14;;;;;;;1.60;1.10;;;11.10;98.20;;;;;;4986913;28;20481;-84
2023/11/06 00:44:41;;;;;;;1.57;1.10;;;11.10;98.20;;;;;;4983763;28;20450;-84
2023/11/06 00:47:08;;;;;;;1.60;1.10;;;11.10;98.20;;;;;;4994118;28;20484;-84
2023/11/06 00:49:35;;;;;;;1.53;1.10;;;11.20;98.20;;;;;;4996829;28;20847;-84
2023/11/06 00:52:03;;;;;;;1.60;1.20;;;11.20;98.20;;;;;;4981763;28;20496;-84
2023/11/06 00:54:30;;;;;;;1.60;1.20;;;11.20;98.20;;;;;;4983775;28;21201;-84
2023/11/06 00:56:57;;;;;;;1.53;1.10;;;11.20;98.20;;;;;;4980486;28;20477;-83
2023/11/06 00:59:24;;;;;;;1.60;1.20;;;11.20;98.20;;;;;;4984560;28;20468;-84
2023/11/06 01:01:50;;;;;;;1.57;1.10;;;11.20;98.20;;;;;;4989566;28;20495;-83
2023/11/06 01:04:17;;;;;;;1.57;1.10;;;11.20;98.20;;;;;;4995462;28;20453;-84
2023/11/06 01:06:45;;;;;;;1.57;1.10;;;11.10;98.20;;;;;;4978988;28;20488;-84
2023/11/06 01:09:13;;;;;;;1.53;1.10;;;11.10;98.20;;;;;;4985291;28;20488;-84
2023/11/06 01:11:40;;;;;;;1.60;1.10;;;11.10;98.20;;;;;;4986222;28;20492;-84
2023/11/06 01:14:07;;;;;;;1.60;1.20;;;11.10;98.20;;;;;;4991693;28;20455;-84
2023/11/06 01:16:34;;;;;;;1.60;1.10;;;11.10;98.20;;;;;;4984851;28;20484;-85
2023/11/06 01:19:01;;;;;;;1.60;1.10;;;11.20;98.20;;;;;;4997519;28;20450;-84
2023/11/06 01:21:28;;;;;;;1.50;1.00;;;11.20;98.20;;;;;;4977476;28;20499;-85
2023/11/06 01:23:55;;;;;;;1.53;1.10;;;11.20;98.20;;;;;;4989320;28;20461;-84
2023/11/06 01:26:23;;;;;;;1.57;1.10;;;11.20;98.20;;;;;;4983883;28;20476;-84
2023/11/06 01:28:50;;;;;;;1.60;1.20;;;11.20;98.20;;;;;;4995645;28;20557;-84
2023/11/06 01:31:18;;;;;;;1.60;1.20;;;11.20;98.20;;;;;;4988983;28;20480;-84
2023/11/06 01:33:45;;;;;;;1.60;1.10;;;11.20;98.20;;;;;;5000470;28;20488;-84
2023/11/06 01:36:12;;;;;;;1.60;1.20;;;11.20;98.20;;;;;;4984199;28;20579;-86
2023/11/06 01:38:39;;;;;;;1.60;1.10;;;11.20;98.20;;;;;;4996146;28;20548;-83
2023/11/06 01:41:06;;;;;;;1.60;1.13;;;11.20;98.20;;;;;;4983822;28;20482;-84
2023/11/06 01:43:35;;;;;;;1.60;1.20;;;11.20;98.20;;;;;;5004306;28;20466;-83
2023/11/06 01:46:02;;;;;;;1.60;1.10;;;11.20;98.20;;;;;;4973995;28;20520;-85
2023/11/06 01:48:30;;;;;;;1.57;1.10;;;11.10;98.20;;;;;;4996102;28;20454;-85
2023/11/06 01:50:58;;;;;;;1.60;1.13;;;11.10;98.20;;;;;;4984911;28;20492;-84
2023/11/06 01:53:26;;;;;;;1.50;1.00;;;11.00;98.20;;;;;;5011336;28;20471;-82
2023/11/06 01:55:53;;;;;;;1.60;1.20;;;11.00;98.20;;;;;;4979791;28;20465;-84
2023/11/06 01:58:21;;;;;;;1.57;1.10;;;10.90;98.20;;;;;;5012280;28;20879;-86
2023/11/06 02:00:51;;;;;;;1.60;1.20;;;10.90;98.20;;;;;;4971636;28;20485;-83
2023/11/06 02:03:18;;;;;;;1.60;1.20;;;10.80;98.20;;;;;;5005017;28;20469;-84
2023/11/06 02:05:44;;;;;;;1.60;1.17;;;10.80;98.20;;;;;;4985814;28;20465;-84
2023/11/06 02:08:11;;;;;;;1.60;1.10;;;10.80;98.20;;;;;;5002014;28;21044;-84
2023/11/06 02:10:38;;;;;;;1.60;1.10;;;10.80;98.20;;;;;;4992701;28;20507;-84
2023/11/06 02:13:06;;;;;;;1.60;1.30;;;10.80;98.20;;;;;;4999202;28;20477;-84
2023/11/06 02:15:33;;;;;;;1.60;1.20;;;10.80;98.20;;;;;;4989785;28;20519;-84
2023/11/06 02:18:01;;;;;;;1.60;1.10;;;10.80;98.20;;;;;;4994975;28;20499;-84
2023/11/06 02:20:28;;;;;;;1.60;1.10;;;10.70;98.20;;;;;;4990693;28;20484;-84
2023/11/06 02:23:03;;;;;;;1.60;1.10;;;10.70;98.20;;;;;;4998484;28;20519;-84
2023/11/06 02:25:30;;;;;;;1.53;1.10;;;10.70;98.20;;;;;;4992759;28;20464;-85
2023/11/06 02:27:57;;;;;;;1.60;1.10;;;10.70;98.20;;;;;;5001760;28;20560;-83
2023/11/06 02:30:24;;;;;;;1.57;1.17;;;10.70;98.20;;;;;;4998259;28;20492;-84
2023/11/06 02:32:51;;;;;;;1.53;1.10;;;10.70;98.20;;;;;;5003094;28;20627;-84
2023/11/06 02:35:17;;;;;;;1.60;1.30;;;10.60;98.20;;;;;;4998608;28;20527;-85
2023/11/06 02:37:44;;;;;;;1.57;1.10;;;10.60;98.20;;;;;;4992688;28;20494;-83
2023/11/06 02:40:13;;;;;;;1.80;1.50;;;10.60;98.20;;;;;;4985253;28;20484;-83
2023/11/06 02:42:40;;;;;;;1.60;1.10;;;10.60;98.20;;;;;;4992550;28;20491;-83
2023/11/06 02:45:09;;;;;;;1.53;1.03;;;10.60;98.20;;;;;;4990238;28;20846;-84
2023/11/06 02:47:36;;;;;;;1.53;1.00;;;10.50;98.20;;;;;;4989453;28;20552;-85
2023/11/06 02:50:05;;;;;;;1.57;1.10;;;10.50;98.20;;;;;;4984472;28;20489;-84
2023/11/06 02:52:31;;;;;;;1.60;1.10;;;10.50;98.20;;;;;;4990425;28;20488;-85
2023/11/06 02:54:58;;;;;;;1.60;1.10;;;10.50;98.20;;;;;;4990595;28;20472;-84
2023/11/06 02:57:26;;;;;;;1.57;1.10;;;10.50;98.20;;;;;;4986271;28;20485;-82
2023/11/06 02:59:53;;;;;;;1.50;1.10;;;10.50;98.20;;;;;;4990776;28;20464;-85
2023/11/06 03:02:20;;;;;;;1.53;1.10;;;10.50;98.20;;;;;;4991075;28;20492;-86
2023/11/06 03:04:47;;;;;;;1.60;1.10;;;10.50;98.20;;;;;;4994539;28;20457;-85
2023/11/06 03:07:13;;;;;;;1.60;1.10;;;10.50;98.20;;;;;;4986864;28;20476;-84
2023/11/06 03:09:41;;;;;;;1.57;1.10;;;10.60;98.20;;;;;;4994902;28;20547;-85
2023/11/06 03:12:08;;;;;;;1.60;1.30;;;10.60;98.20;;;;;;4991405;28;20473;-84
2023/11/06 03:14:36;;;;;;;1.60;1.20;;;10.60;98.20;;;;;;4995030;28;20461;-85
2023/11/06 03:17:04;;;;;;;1.60;1.20;;;10.50;98.20;;;;;;4989541;28;20480;-85
2023/11/06 03:19:33;;;;;;;1.60;1.20;;;10.50;98.20;;;;;;4996636;28;20515;-86
2023/11/06 03:21:59;;;;;;;1.57;1.10;;;10.60;98.20;;;;;;4988232;28;20523;-85
2023/11/06 03:24:27;;;;;;;1.60;1.10;;;10.60;98.20;;;;;;4997735;28;20671;-85
2023/11/06 03:26:54;;;;;;;1.53;1.10;;;10.60;98.20;;;;;;4989783;28;20476;-85
2023/11/06 03:29:21;;;;;;;1.57;1.10;;;10.60;98.20;;;;;;4994111;28;20473;-84
2023/11/06 03:31:49;;;;;;;1.60;1.10;;;10.60;98.20;;;;;;4986620;28;20518;-85
2023/11/06 03:34:16;;;;;;;1.60;1.10;;;10.60;98.20;;;;;;4994345;28;20461;-85
2023/11/06 03:36:43;;;;;;;1.53;1.10;;;10.60;98.20;;;;;;4987306;28;20548;-84
2023/11/06 03:39:10;;;;;;;1.60;1.20;;;10.60;98.20;;;;;;4998821;28;20461;-85
2023/11/06 03:41:36;;;;;;;1.60;1.20;;;10.60;98.20;;;;;;4987687;28;20491;-84
2023/11/06 03:44:03;;;;;;;1.60;1.20;;;10.60;98.20;;;;;;4999083;28;20457;-83
2023/11/06 03:46:30;;;;;;;1.60;1.20;;;10.60;98.20;;;;;;4986310;28;20914;-84
2023/11/06 03:48:59;;;;;;;1.60;1.10;;;10.60;98.20;;;;;;5000129;28;20478;-84
2023/11/06 03:51:26;;;;;;;1.57;1.10;;;10.60;98.20;;;;;;4986354;28;20476;-85
2023/11/06 03:53:53;;;;;;;1.60;1.10;;;10.60;98.20;;;;;;5001551;28;20465;-86
2023/11/06 03:56:19;;;;;;;1.60;1.13;;;10.60;98.20;;;;;;4987445;28;20492;-86
2023/11/06 03:58:45;;;;;;;1.60;1.20;;;10.50;98.20;;;;;;5002216;28;20461;-85
2023/11/06 04:01:12;;;;;;;1.60;1.10;;;10.50;98.20;;;;;;4984844;28;20562;-85
2023/11/06 04:03:40;;;;;;;1.77;1.50;;;10.50;98.20;;;;;;5002792;28;20212;-83
2023/11/06 04:06:08;;;;;;;1.60;1.10;;;10.50;98.20;;;;;;4984536;28;20983;-85
2023/11/06 04:08:36;;;;;;;1.60;1.10;;;10.40;98.20;;;;;;5004031;28;20485;-85
2023/11/06 04:11:02;;;;;;;1.60;1.10;;;10.40;98.20;;;;;;4983412;28;20481;-84
2023/11/06 04:13:29;;;;;;;1.57;1.10;;;10.40;98.20;;;;;;5006015;28;20488;-85
2023/11/06 04:15:56;;;;;;;1.60;1.20;;;10.40;98.20;;;;;;4982496;28;20465;-86
2023/11/06 04:18:23;;;;;;;1.57;1.10;;;10.40;98.20;;;;;;5008018;28;20832;-85
2023/11/06 04:20:50;;;;;;;1.57;1.10;;;10.40;98.20;;;;;;4980790;28;20481;-84
2023/11/06 04:23:18;;;;;;;1.60;1.20;;;10.40;98.20;;;;;;5004703;28;20956;-84
2023/11/06 04:25:48;;;;;;;1.60;1.10;;;10.40;98.20;;;;;;4986341;28;20469;-86
2023/11/06 04:28:15;;;;;;;1.60;1.10;;;10.40;98.20;;;;;;4969918;28;20490;-85
2023/11/06 04:30:43;;;;;;;1.60;1.20;;;10.50;98.20;;;;;;4980929;28;20847;-85
2023/11/06 04:33:10;;;;;;;1.60;1.10;;;10.50;98.20;;;;;;4995628;28;20469;-85
2023/11/06 04:35:37;;;;;;;1.60;1.10;;;10.50;98.20;;;;;;4994813;28;20468;-83
2023/11/06 04:38:05;;;;;;;1.60;1.10;;;10.50;98.20;;;;;;4993664;28;20791;-85
2023/11/06 04:40:33;;;;;;;1.60;1.20;;;10.50;98.20;;;;;;4984869;28;20544;-86
2023/11/06 04:43:01;;;;;;;1.60;1.27;;;10.50;98.20;;;;;;4979898;28;20516;-86
2023/11/06 04:45:28;;;;;;;1.60;1.20;;;10.50;98.20;;;;;;4992073;28;20534;-85
2023/11/06 04:47:55;;;;;;;1.57;1.17;;;10.50;98.20;;;;;;4985376;28;20493;-86
2023/11/06 04:50:22;;;;;;;1.50;1.10;;;10.50;98.20;;;;;;4985599;28;21067;-83
2023/11/06 04:52:49;;;;;;;2.00;1.80;;;10.50;98.20;;;;;;4995945;28;20490;-83
2023/11/06 04:55:15;;;;;;;1.60;1.10;;;10.60;98.20;;;;;;4989265;28;20461;-84
2023/11/06 04:57:44;;;;;;;1.60;1.10;;;10.60;98.20;;;;;;4992687;28;20524;-83
2023/11/06 05:00:12;;;;;;;1.60;1.20;;;10.60;98.20;;;;;;4987823;28;20481;-87
2023/11/06 05:02:39;;;;;;;1.60;1.10;;;10.60;98.20;;;;;;4998538;28;20539;-85
2023/11/06 05:05:09;;;;;;;1.53;1.10;;;10.60;98.20;;;;;;4992218;28;20468;-86
2023/11/06 05:07:38;;;;;;;1.60;1.10;;;10.60;98.20;;;;;;4986889;28;20492;-87
2023/11/06 05:10:06;;;;;;;1.60;1.10;;;10.60;98.20;;;;;;4987429;28;20481;-85
2023/11/06 05:12:35;;;;;;;1.60;1.20;;;10.50;98.20;;;;;;4990624;28;20543;-85
2023/11/06 05:15:03;;;;;;;1.57;1.00;;;10.50;98.20;;;;;;4991203;28;20947;-86
2023/11/06 05:17:31;;;;;;;1.50;1.10;;;10.50;98.20;;;;;;4999930;28;20476;-86
2023/11/06 05:19:57;;;;;;;1.53;1.10;;;10.40;98.20;;;;;;4992064;28;20532;-86
2023/11/06 05:22:24;;;;;;;1.60;1.13;;;10.40;98.20;;;;;;4992695;28;20495;-86
2023/11/06 05:24:51;;;;;;;1.57;1.10;;;10.40;98.20;;;;;;4995016;28;20465;-86
2023/11/06 05:27:18;;;;;;;4.60;4.13;;;10.40;98.20;;;;;;4990624;28;20480;-85
2023/11/06 05:29:45;;;;;;;1.53;1.10;;;10.40;98.20;;;;;;4994766;28;20910;-86
2023/11/06 05:32:13;;;;;;;1.53;1.10;;;10.40;98.20;;;;;;4985903;28;20472;-85
2023/11/06 05:35:10;;;;;;;1.57;1.10;;;10.40;98.20;;;;;;4993588;28;20468;-86
2023/11/06 05:37:37;;;;;;;1.60;1.20;;;10.40;98.20;;;;;;4984447;28;20520;-84
2023/11/06 05:40:04;;;;;;;1.60;1.17;;;10.40;98.20;;;;;;4991421;28;21006;-86
2023/11/06 05:42:31;;;;;;;1.60;1.13;;;10.40;98.20;;;;;;4996410;28;21195;-84
2023/11/06 05:44:58;;;;;;;1.53;1.10;;;10.40;98.20;;;;;;4993890;28;20515;-85
2023/11/06 05:47:26;;;;;;;1.60;1.10;;;10.50;98.20;;;;;;4987533;28;20493;-85
2023/11/06 05:49:53;;;;;;;1.60;1.10;;;10.50;98.20;;;;;;4994764;28;20466;-85
2023/11/06 05:52:20;;;;;;;1.60;1.20;;;10.50;98.20;;;;;;4991074;28;20472;-85
2023/11/06 05:54:47;;;;;;;1.60;1.20;;;10.60;98.20;;;;;;5000022;28;20466;-85
2023/11/06 05:57:13;;;;;;;1.60;1.10;;;10.60;98.20;;;;;;4984296;28;20472;-86
2023/11/06 05:59:40;;;;;;;1.60;1.10;;;10.60;98.20;;;;;;5000821;28;20939;-85
2023/11/06 06:02:08;;;;;;;1.60;1.10;;;10.60;98.20;;;;;;4998991;28;20487;-85
2023/11/06 06:04:37;;;;;;;1.60;1.17;;;10.70;98.20;;;;;;5005267;28;20493;-85
2023/11/06 06:07:04;;;;;;;1.57;1.10;;;10.70;98.20;;;;;;4995829;28;20481;-85
2023/11/06 06:09:36;;;;;;;1.60;1.10;;;10.70;98.20;;;;;;4996532;28;20467;-84
2023/11/06 06:12:03;;;;;;;1.60;1.10;;;10.70;98.20;;;;;;4994881;28;20653;-86
2023/11/06 06:14:38;;;;;;;1.57;1.10;;;10.70;98.20;;;;;;4998786;28;20471;-85
2023/11/06 06:17:05;;;;;;;1.57;1.10;;;10.70;98.20;;;;;;4984046;28;20503;-87
2023/11/06 06:19:32;;;;;;;1.60;1.10;;;10.70;98.20;;;;;;4987698;28;20476;-84
2023/11/06 06:22:00;;;;;;;1.57;1.10;;;10.70;98.20;;;;;;4984505;28;20889;-82
2023/11/06 06:24:27;;;;;;;1.57;1.20;;;10.70;98.20;;;;;;4997856;28;20495;-83
2023/11/06 06:26:54;;;;;;;1.60;1.10;;;10.70;98.20;;;;;;4988300;28;21286;-82
2023/11/06 06:29:21;;;;;;;1.60;1.20;;;10.70;98.20;;;;;;4995332;28;20489;-84
2023/11/06 06:31:48;;;;;;;1.60;1.10;;;10.70;98.20;;;;;;4989282;28;20591;-84
2023/11/06 06:34:20;;;;;;;1.53;1.10;;;10.80;98.20;;;;;;5000798;28;20460;-81
2023/11/06 06:37:03;;;;;;;1.60;1.10;;;10.70;98.20;;;;;;4991450;28;20476;-81
2023/11/06 06:39:32;;;;;;;1.60;1.20;;;10.70;98.20;;;;;;4994689;28;20483;-81
2023/11/06 06:41:59;;;;;;;1.57;1.10;;;10.70;98.20;;;;;;4984340;28;20552;-82
2023/11/06 06:44:25;;;;;;;1.53;1.00;;;10.60;98.20;;;;;;4992497;28;20473;-81
2023/11/06 06:46:56;;;;;;;1.60;1.10;;;10.60;98.20;;;;;;4982938;28;20476;-82
2023/11/06 06:49:23;;;;;;;1.60;1.20;;;10.60;98.20;;;;;;4991946;28;20497;-81
2023/11/06 06:51:50;;;;;;;1.60;1.20;;;10.50;98.20;;;;;;4987162;28;20489;-81
2023/11/06 06:54:16;;;;;;;1.57;1.10;;;10.50;98.20;;;;;;4995394;28;20457;-81
2023/11/06 06:56:45;;;;;;;1.60;1.10;;;10.40;98.20;;;;;;4981622;28;20574;-82
2023/11/06 06:59:12;;;;;;;1.53;1.10;;;10.40;98.20;;;;;;4989470;28;20507;-81
2023/11/06 07:01:39;;;;;;;1.50;1.10;;;10.40;98.20;;;;;;4985004;28;20889;-81
2023/11/06 07:04:06;;;;;;;1.60;1.03;;;10.40;98.20;;;;;;4995703;28;20484;-82
2023/11/06 07:06:35;;;;;;;1.60;1.20;;;10.40;98.20;;;;;;4984202;28;20856;-81
2023/11/06 07:09:02;;;;;;;1.60;1.10;;;10.40;98.20;;;;;;4993430;28;20526;-81
2023/11/06 07:11:29;;;;;;;1.60;1.10;;;10.40;98.20;;;;;;4983294;28;20575;-83
2023/11/06 07:13:58;;;;;;;1.60;1.17;;;10.40;98.20;;;;;;4993788;28;20524;-81
2023/11/06 07:16:24;;;;;;;1.60;1.10;;;10.40;98.20;;;;;;4983867;28;20495;-81
2023/11/06 07:18:52;;;;;;;1.53;1.10;;;10.40;98.20;;;;;;4998273;28;20464;-80
2023/11/06 07:21:19;;;;;;;1.57;1.10;;;10.50;98.20;;;;;;4983055;28;20475;-82
2023/11/06 07:23:45;;;;;;;1.57;1.10;;;10.50;98.20;;;;;;4995659;28;20540;-81
2023/11/06 07:26:12;;;;;;;1.60;1.20;;;10.50;98.20;;;;;;4983333;28;20472;-82
2023/11/06 07:28:39;;;;;;;1.50;1.10;;;10.60;98.20;;;;;;4996016;28;20489;-83
2023/11/06 07:31:07;;;;;;;1.53;1.10;;;10.60;98.20;;;;;;4980129;28;20508;-81
2023/11/06 07:33:34;;;;;;;1.53;1.00;;;10.70;98.20;;;;;;4997892;28;20471;-82
2023/11/06 07:36:01;;;;;;;1.53;1.10;;;10.80;98.20;;;;;;4981179;28;20497;-82
2023/11/06 07:38:29;;;;;;;1.60;1.20;;;10.90;98.20;;;;;;5004619;28;20898;-82
2023/11/06 07:40:56;;;;;;;1.60;1.07;;;11.00;98.20;;;;;;4980029;28;20480;-82
2023/11/06 07:43:22;;;;;;;1.60;1.20;;;11.00;98.20;;;;;;5002050;28;20471;-81
2023/11/06 07:45:49;;;;;;;1.57;1.10;;;11.10;98.20;;;;;;4980920;28;21051;-83
2023/11/06 07:48:18;;;;;;;1.57;1.03;;;11.10;98.20;;;;;;4999998;28;20488;-81
2023/11/06 07:50:45;;;;;;;1.53;1.10;;;11.20;98.20;;;;;;4991472;28;20493;-81
2023/11/06 07:53:12;;;;;;;1.60;1.10;;;11.20;98.20;;;;;;4981352;28;21135;-82
2023/11/06 07:55:38;;;;;;;1.57;1.10;;;11.30;98.20;;;;;;4990448;28;20474;-81
2023/11/06 07:58:05;;;;;;;1.60;1.10;;;11.40;98.20;;;;;;4989193;28;20487;-81
2023/11/06 08:00:33;;;;;;;1.57;1.10;;;11.50;98.20;;;;;;4989443;28;20489;-82
2023/11/06 08:02:59;;;;;;;2.27;2.07;;;11.50;98.20;;;;;;4972731;28;20501;-81
2023/11/06 08:05:28;;;;;;;1.50;1.10;;;11.60;98.20;;;;;;4989355;28;20465;-81
2023/11/06 08:07:55;;;;;;;1.60;1.10;;;11.60;98.20;;;;;;4989348;28;20531;-81
2023/11/06 08:10:26;;;;;;;1.60;1.20;;;11.70;98.20;;;;;;4990647;28;20492;-80
2023/11/06 08:12:53;;;;;;;1.60;1.10;;;11.70;98.20;;;;;;4989883;28;20963;-80
2023/11/06 08:15:20;;;;;;;1.60;1.10;;;11.80;98.20;;;;;;4988091;28;20814;-80
2023/11/06 08:17:48;;;;;;;1.60;1.20;;;11.80;98.20;;;;;;4991750;28;20476;-82
2023/11/06 08:20:15;;;;;;;1.60;1.10;;;11.80;98.20;;;;;;4989226;28;20855;-81
2023/11/06 08:22:46;;;;;;;1.53;1.00;;;11.90;98.20;;;;;;4976885;28;21230;-82
2023/11/06 08:25:14;;;;;;;1.60;1.10;;;11.90;98.20;;;;;;4986004;28;20471;-82
2023/11/06 08:27:41;;;;;;;1.60;1.10;;;12.00;98.20;;;;;;4984269;28;20481;-82
2023/11/06 08:30:09;;;;;;;1.60;1.03;;;12.00;98.20;;;;;;4985566;28;20493;-80
2023/11/06 08:32:36;;;;;;;1.57;1.07;;;12.10;98.20;;;;;;4994066;28;20630;-82
2023/11/06 08:35:04;;;;;;;1.50;1.07;;;12.20;98.20;;;;;;4990914;28;20468;-83
2023/11/06 08:37:32;;;;;;;1.60;1.00;;;12.20;98.20;;;;;;4994534;28;20477;-82
2023/11/06 08:40:00;;;;;;;1.60;1.10;;;12.30;98.20;;;;;;4992191;28;20813;-83
2023/11/06 08:42:27;;;;;;;1.60;1.00;;;12.40;98.20;;;;;;4993274;28;20499;-82
2023/11/06 08:44:54;;;;;;;1.60;1.20;;;12.40;98.20;;;;;;4989014;28;20484;-83
2023/11/06 08:47:21;;;;;;;1.60;1.10;;;12.50;98.20;;;;;;4992390;28;20476;-82
2023/11/06 08:49:48;;;;;;;1.60;1.00;;;12.60;98.20;;;;;;4993010;28;20485;-83
2023/11/06 08:52:16;;;;;;;1.57;1.10;;;12.60;98.20;;;;;;4992219;28;20479;-81
2023/11/06 08:54:45;;;;;;;1.60;1.10;;;12.70;98.20;;;;;;4995243;28;20804;-83
2023/11/06 08:57:13;;;;;;;1.60;1.20;;;12.80;98.20;;;;;;4991730;28;20480;-82
2023/11/06 08:59:41;;;;;;;1.60;1.10;;;12.90;98.20;;;;;;4995094;28;20840;-83
2023/11/06 09:02:07;;;;;;;1.60;1.10;;;12.90;98.20;;;;;;4985161;28;20531;-82
2023/11/06 09:04:34;;;;;;;1.57;1.10;;;13.00;98.20;;;;;;4994009;28;20508;-82
2023/11/06 09:07:01;;;;;;;1.57;1.00;;;13.00;98.20;;;;;;4974884;28;20512;-83
2023/11/06 09:09:29;;;;;;;1.57;1.00;;;13.10;98.20;;;;;;4987204;28;20492;-82
2023/11/06 09:11:56;;;;;;;1.60;1.00;;;13.10;98.20;;;;;;4987133;28;20484;-83
2023/11/06 09:14:25;;;;;;;1.57;1.10;;;13.10;98.20;;;;;;4996215;28;20475;-83
2023/11/06 09:16:52;;;;;;;1.60;1.10;;;13.20;98.20;;;;;;4984670;28;20503;-82
2023/11/06 09:19:18;;;;;;;1.57;1.00;;;13.10;98.20;;;;;;4996056;28;20461;-83
2023/11/06 09:21:45;;;;;;;1.60;1.00;;;13.10;98.20;;;;;;4984926;28;20480;-83
2023/11/06 09:24:12;;;;;;;1.60;1.20;;;13.20;98.20;;;;;;4993276;28;20469;-83
2023/11/06 09:26:39;;;;;;;1.60;1.10;;;13.20;98.20;;;;;;4984273;28;20490;-84
2023/11/06 09:29:06;;;;;;;1.60;1.10;;;13.20;98.20;;;;;;4994067;28;20489;-82
2023/11/06 09:31:35;;;;;;;1.60;1.00;;;13.20;98.20;;;;;;4987447;28;20492;-82
2023/11/06 09:34:01;;;;;;;1.57;1.00;;;13.20;98.20;;;;;;4999216;28;20493;-83
2023/11/06 09:36:28;;;;;;;1.60;1.00;;;13.20;98.20;;;;;;4986416;28;20498;-82
2023/11/06 09:38:56;;;;;;;1.60;1.00;;;13.20;98.20;;;;;;5000316;28;20489;-82
2023/11/06 09:41:25;;;;;;;1.60;1.00;;;13.20;98.20;;;;;;4985087;28;20495;-82
2023/11/06 09:43:52;;;;;;;1.60;1.00;;;13.20;98.20;;;;;;4993041;28;20503;-82
2023/11/06 09:46:19;;;;;;;1.60;1.20;;;13.20;98.20;;;;;;4983356;28;20476;-82
2023/11/06 09:48:49;;;;;;;1.60;1.00;;;13.20;98.20;;;;;;4999094;28;20567;-83
2023/11/06 09:51:16;;;;;;;1.60;1.00;;;13.10;98.20;;;;;;4987197;28;21023;-80
2023/11/06 09:53:46;;;;;;;1.60;1.10;;;13.10;98.20;;;;;;4998914;28;20503;-82
2023/11/06 09:56:14;;;;;;;1.60;1.00;;;13.20;98.20;;;;;;4979917;28;20559;-83
2023/11/06 09:58:42;;;;;;;1.53;1.00;;;13.20;98.20;;;;;;5002376;28;20488;-83
2023/11/06 10:01:11;;;;;;;1.53;1.00;;;13.20;98.20;;;;;;4982266;28;20518;-83
2023/11/06 10:03:39;;;;;;;1.60;1.10;;;13.30;98.20;;;;;;5001673;28;20955;-82
2023/11/06 10:06:08;;;;;;;1.57;1.07;;;13.30;98.20;;;;;;4984682;28;20612;-82
2023/11/06 10:08:37;;;;;;;1.60;1.10;;;13.40;98.20;;;;;;5002611;28;20512;-83
2023/11/06 10:11:06;;;;;;;1.60;1.10;;;13.50;98.20;;;;;;4982868;28;20508;-82
2023/11/06 10:13:33;;;;;;;1.53;1.00;;;13.50;98.20;;;;;;4993298;28;20500;-82
2023/11/06 10:16:18;;;;;;;1.60;1.07;;;13.50;98.20;;;;;;4976808;28;20835;-82
2023/11/06 10:18:46;;;;;;;1.57;1.00;;;13.50;98.20;;;;;;4996581;28;20455;-82
2023/11/06 10:21:28;;;;;;;1.50;1.00;;;13.50;98.20;;;;;;4983086;28;20527;-83
2023/11/06 10:23:59;;;;;;;1.57;1.00;;;13.50;98.20;;;;;;4998436;28;20469;-83
2023/11/06 10:26:29;;;;;;;1.50;1.00;;;13.50;98.20;;;;;;4981844;28;21006;-85
2023/11/06 10:29:09;;;;;;;1.60;1.00;;;13.50;98.20;;;;;;4998644;28;20544;-85
2023/11/06 10:31:37;;;;;;;1.53;1.00;;;13.50;98.20;;;;;;4982326;28;20494;-84
2023/11/06 10:34:04;;;;;;;1.53;1.00;;;13.50;98.20;;;;;;4995182;28;20465;-82
2023/11/06 10:36:32;;;;;;;1.60;1.10;;;13.40;98.20;;;;;;4984331;28;20689;-82
2023/11/06 10:39:09;;;;;;;1.60;1.10;;;13.40;98.20;;;;;;4996514;28;20466;-81
2023/11/06 10:41:38;;;;;;;1.60;1.00;;;13.40;98.20;;;;;;4987326;28;20554;-83
2023/11/06 10:44:07;;;;;;;1.53;1.00;;;13.40;98.20;;;;;;4996097;28;20863;-83
2023/11/06 10:46:35;;;;;;;1.60;1.00;;;13.40;98.20;;;;;;4977657;28;20492;-81
2023/11/06 10:49:10;;;;;;;1.53;1.00;;;13.40;98.20;;;;;;4994545;28;20492;-81
2023/11/06 10:51:41;;;;;;;1.53;0.93;;;13.40;98.20;;;;;;4977891;28;20523;-81
2023/11/06 10:54:09;;;;;;;1.53;1.00;;;13.50;98.20;;;;;;4991679;28;20982;-82
2023/11/06 10:56:37;;;;;;;1.60;1.10;;;13.50;98.20;;;;;;4981432;28;20492;-82
2023/11/06 10:59:05;;;;;;;1.60;1.00;;;13.40;98.20;;;;;;4990188;28;20463;-80
2023/11/06 11:01:34;;;;;;;1.53;1.00;;;13.40;98.20;;;;;;4980357;28;20493;-81
2023/11/06 11:04:08;;;;;;;1.60;1.10;;;13.50;98.20;;;;;;4987616;28;20972;-82
2023/11/06 11:06:40;;;;;;;1.57;1.00;;;13.60;98.20;;;;;;4988614;28;20497;-81
2023/11/06 11:09:10;;;;;;;1.60;1.10;;;13.80;98.20;;;;;;4996554;28;20484;-80
2023/11/06 11:11:39;;;;;;;1.60;1.10;;;13.90;98.20;;;;;;4985008;28;20549;-80
2023/11/06 11:14:06;;;;;;;1.53;1.00;;;13.90;98.20;;;;;;4994430;28;20554;-82
2023/11/06 11:16:37;;;;;;;1.57;1.00;;;13.90;98.20;;;;;;4986633;28;20518;-81
2023/11/06 11:19:23;;;;;;;1.60;1.10;;;13.90;98.20;;;;;;4994749;28;20531;-80
2023/11/06 11:22:03;;;;;;;1.60;1.00;;;13.90;98.20;;;;;;4977522;28;20496;-81
2023/11/06 11:24:51;;;;;;;1.60;1.10;;;13.90;98.20;;;;;;4987026;28;20467;-81
2023/11/06 11:27:21;;;;;;;1.53;1.00;;;13.90;98.20;;;;;;4983762;28;20472;-79
2023/11/06 11:30:10;;;;;;;1.57;0.93;;;13.90;98.20;;;;;;4996664;28;20551;-82
2023/11/06 11:32:49;;;;;;;1.50;1.00;;;13.90;98.20;;;;;;4990782;28;20501;-82
2023/11/06 11:35:47;;;;;;;1.53;1.00;;;13.80;98.20;;;;;;4986242;28;20468;-82
2023/11/06 11:38:30;;;;;;;1.57;1.03;;;13.80;98.20;;;;;;4978787;28;20516;-82
2023/11/06 11:41:13;;;;;;;1.50;1.00;;;13.80;98.20;;;;;;4980743;28;20866;-83
2023/11/06 11:43:46;;;;;;;1.57;1.00;;;13.70;98.20;;;;;;5000499;28;20492;-82
2023/11/06 11:46:56;;;;;;;1.57;1.00;;;13.70;98.20;;;;;;4983425;28;20499;-83
2023/11/06 11:49:46;;;;;;;1.60;1.10;;;13.70;98.20;;;;;;4990504;28;20497;-80
2023/11/06 11:52:36;;;;;;;1.60;1.00;;;13.70;98.20;;;;;;4987650;28;22021;-80
2023/11/06 11:55:37;;;;;;;1.53;1.00;;;13.70;98.20;;;;;;4986424;28;20501;-80
2023/11/06 11:58:07;;;;;;;1.50;1.10;;;13.70;98.20;;;;;;4989146;28;20555;-80
2023/11/06 12:00:36;;;;;;;1.60;1.00;;;13.70;98.20;;;;;;4987463;28;20484;-81
2023/11/06 12:03:07;;;;;;;1.60;1.03;;;13.80;98.20;;;;;;4988075;28;20504;-81
2023/11/06 12:05:36;;;;;;;1.50;1.00;;;13.70;98.20;;;;;;4986593;28;20544;-79
2023/11/06 12:08:18;;;;;;;1.57;1.00;;;13.70;98.20;;;;;;4992499;28;20484;-80
2023/11/06 12:10:46;;;;;;;1.53;0.90;;;13.70;98.20;;;;;;4987489;28;20500;-81
2023/11/06 12:13:15;;;;;;;1.57;1.00;;;13.70;98.20;;;;;;4981448;28;20485;-79
2023/11/06 12:15:42;;;;;;;2.07;1.87;;;13.70;98.20;;;;;;4990795;28;20539;-78
2023/11/06 12:18:11;;;;;;;1.53;1.00;;;13.70;98.20;;;;;;4993713;28;20567;-79
2023/11/06 12:20:38;;;;;;;1.57;1.00;;;13.70;98.20;;;;;;4989386;28;20480;-78
2023/11/06 12:23:05;;;;;;;1.60;1.10;;;13.70;98.20;;;;;;4998800;28;21201;-79
2023/11/06 12:25:34;;;;;;;1.53;1.00;;;13.70;98.20;;;;;;4991542;28;20523;-80
2023/11/06 12:28:05;;;;;;;1.60;1.10;;;13.70;98.20;;;;;;4990483;28;20482;-79
2023/11/06 12:30:38;;;;;;;1.60;1.10;;;13.80;98.20;;;;;;4984288;28;20574;-80
2023/11/06 12:33:13;;;;;;;1.53;1.00;;;13.90;98.20;;;;;;4984720;28;20481;-80
2023/11/06 12:35:41;;;;;;;1.60;1.00;;;14.10;98.20;;;;;;4992097;28;20532;-81
2023/11/06 12:38:09;;;;;;;1.57;1.00;;;14.40;98.20;;;;;;4996736;28;20476;-78
2023/11/06 12:40:42;;;;;;;1.60;1.00;;;14.60;98.20;;;;;;4990109;28;20485;-78
2023/11/06 12:43:12;;;;;;;1.57;1.00;;;14.80;98.20;;;;;;4992574;28;20926;-79
2023/11/06 12:45:41;;;;;;;1.60;1.00;;;15.10;98.20;;;;;;4990570;28;20502;-77
2023/11/06 12:48:23;;;;;;;1.50;1.00;;;15.30;98.20;;;;;;4981929;28;20579;-79
2023/11/06 12:51:03;;;;;;;1.60;1.00;;;15.40;98.20;;;;;;4977679;28;20935;-77
2023/11/06 12:53:31;;;;;;;1.60;1.10;;;15.40;98.20;;;;;;4991661;28;20515;-79
2023/11/06 12:55:57;;;;;;;1.57;1.00;;;15.40;98.20;;;;;;4973535;28;20468;-79